createdAt,value
2022-11-05T00:00:51.437Z,7.32
2022-11-05T00:03:18.558Z,8.65
2022-11-05T00:05:48.544Z,10.03
2022-11-05T00:08:15.457Z,14.23
2022-11-05T00:10:42.599Z,16.23
2022-11-05T00:13:11.328Z,16.35
2022-11-05T00:15:38.659Z,15.32
2022-11-05T00:18:05.611Z,13.60
2022-11-05T00:20:33.529Z,11.05
2022-11-05T00:23:05.277Z,11.05
2022-11-05T00:25:33.213Z,12.45
2022-11-05T00:28:04.058Z,10.23
2022-11-05T00:30:31.304Z,11.07
2022-11-05T00:33:02.009Z,10.15
2022-11-05T00:35:28.971Z,10.48
2022-11-05T00:37:55.730Z,9.80
2022-11-05T00:40:23.125Z,7.78
2022-11-05T00:42:50.036Z,6.97
2022-11-05T00:45:17.487Z,8.20
2022-11-05T00:47:44.484Z,12.40
2022-11-05T00:50:11.427Z,12.93
2022-11-05T00:52:39.173Z,10.88
2022-11-05T00:55:06.239Z,9.90
2022-11-05T00:57:33.066Z,10.45
2022-11-05T00:59:59.942Z,11.18
2022-11-05T01:02:27.630Z,10.23
2022-11-05T01:04:54.622Z,8.70
2022-11-05T01:07:21.964Z,7.53
2022-11-05T01:09:48.856Z,8.60
2022-11-05T01:12:15.678Z,11.93
2022-11-05T01:14:42.636Z,13.23
2022-11-05T01:17:09.525Z,13.45
2022-11-05T01:19:36.332Z,13.03
2022-11-05T01:22:03.293Z,13.55
2022-11-05T01:24:31.316Z,13.20
2022-11-05T01:26:58.076Z,11.88
2022-11-05T01:29:25.581Z,10.15
2022-11-05T01:31:52.454Z,9.60
2022-11-05T01:34:19.327Z,10.10
2022-11-05T01:36:46.158Z,9.25
2022-11-05T01:39:13.809Z,10.15
2022-11-05T01:41:40.681Z,9.55
2022-11-05T01:44:46.882Z,12.67
2022-11-05T01:47:39.864Z,10.50
2022-11-05T01:50:42.527Z,9.23
2022-11-05T01:53:30.191Z,13.52
2022-11-05T01:56:13.888Z,12.32
2022-11-05T01:58:53.098Z,10.70
2022-11-05T02:01:20.383Z,10.15
2022-11-05T02:03:50.800Z,10.48
2022-11-05T02:06:18.828Z,13.32
2022-11-05T02:09:00.845Z,13.90
2022-11-05T02:11:28.897Z,15.97
2022-11-05T02:13:57.075Z,13.45
2022-11-05T02:16:53.445Z,13.52
2022-11-05T02:19:59.254Z,13.40
2022-11-05T02:22:26.110Z,9.98
2022-11-05T02:25:01.925Z,9.20
2022-11-05T02:28:15.227Z,10.95
2022-11-05T02:30:48.018Z,11.65
2022-11-05T02:33:31.625Z,12.93
2022-11-05T02:36:32.623Z,14.00
2022-11-05T02:39:22.238Z,14.33
2022-11-05T02:42:14.736Z,13.30
2022-11-05T02:44:59.815Z,13.77
2022-11-05T02:47:47.322Z,14.93
2022-11-05T02:50:44.750Z,14.68
2022-11-05T02:53:35.499Z,13.90
2022-11-05T02:56:27.085Z,13.50
2022-11-05T02:58:53.959Z,13.45
2022-11-05T03:01:20.826Z,12.55
2022-11-05T03:03:54.273Z,11.60
2022-11-05T03:06:42.939Z,11.07
2022-11-05T03:09:12.750Z,10.40
2022-11-05T03:12:14.423Z,9.95
2022-11-05T03:15:06.038Z,10.48
2022-11-05T03:17:38.833Z,11.15
2022-11-05T03:20:17.749Z,10.80
2022-11-05T03:22:54.606Z,8.77
2022-11-05T03:25:24.440Z,8.63
2022-11-05T03:27:58.447Z,11.70
2022-11-05T03:30:26.096Z,13.00
2022-11-05T03:33:00.861Z,13.03
2022-11-05T03:35:31.992Z,13.27
2022-11-05T03:38:05.376Z,12.00
2022-11-05T03:40:38.571Z,12.80
2022-11-05T03:43:08.288Z,10.50
2022-11-05T03:45:41.990Z,9.17
2022-11-05T03:48:12.374Z,9.75
2022-11-05T03:51:12.833Z,8.75
2022-11-05T03:53:55.865Z,8.20
2022-11-05T03:57:03.812Z,8.98
2022-11-05T03:59:32.876Z,11.60
2022-11-05T04:01:59.905Z,13.15
2022-11-05T04:04:26.974Z,12.32
2022-11-05T04:06:53.838Z,13.45
2022-11-05T04:09:20.965Z,13.77
2022-11-05T04:11:48.419Z,13.70
2022-11-05T04:14:15.290Z,13.07
2022-11-05T04:16:42.119Z,11.50
2022-11-05T04:19:08.976Z,11.73
2022-11-05T04:21:35.778Z,14.05
2022-11-05T04:24:03.281Z,13.13
2022-11-05T04:26:30.326Z,14.35
2022-11-05T04:28:58.157Z,13.40
2022-11-05T04:31:25.022Z,13.85
2022-11-05T04:33:51.932Z,13.55
2022-11-05T04:36:19.336Z,13.97
2022-11-05T04:38:46.148Z,11.98
2022-11-05T04:41:33.100Z,14.95
2022-11-05T04:44:00.026Z,13.85
2022-11-05T04:46:27.466Z,14.13
2022-11-05T04:48:55.660Z,13.13
2022-11-05T04:51:22.501Z,11.57
2022-11-05T04:53:50.733Z,12.77
2022-11-05T04:56:22.712Z,13.65
2022-11-05T04:58:49.883Z,14.55
2022-11-05T05:01:21.868Z,14.27
2022-11-05T05:03:53.716Z,12.38
2022-11-05T05:06:21.010Z,10.10
2022-11-05T05:08:56.289Z,10.23
2022-11-05T05:11:23.253Z,10.15
2022-11-05T05:13:50.426Z,14.20
2022-11-05T05:16:23.826Z,14.30
2022-11-05T05:18:51.349Z,14.43
2022-11-05T05:21:22.063Z,14.98
2022-11-05T05:23:49.116Z,14.63
2022-11-05T05:26:16.897Z,14.53
2022-11-05T05:28:43.727Z,15.13
2022-11-05T05:31:10.658Z,15.20
2022-11-05T05:33:37.596Z,15.70
2022-11-05T05:36:08.499Z,14.85
2022-11-05T05:38:38.321Z,15.00
2022-11-05T05:41:05.282Z,15.35
2022-11-05T05:43:33.678Z,16.65
2022-11-05T05:46:04.952Z,15.98
2022-11-05T05:58:20.700Z,18.83
2022-11-05T06:00:47.532Z,18.13
2022-11-05T06:03:14.776Z,18.08
2022-11-05T06:05:41.835Z,19.13
2022-11-05T06:08:08.699Z,19.52
2022-11-05T06:10:36.099Z,20.63
2022-11-05T06:13:03.369Z,19.52
2022-11-05T06:15:35.504Z,18.65
2022-11-05T06:18:02.824Z,18.27
2022-11-05T06:20:29.926Z,19.40
2022-11-05T06:22:57.649Z,18.95
2022-11-05T06:25:25.390Z,20.35
2022-11-05T06:27:53.476Z,19.57
2022-11-05T06:30:20.423Z,19.70
2022-11-05T06:32:47.542Z,20.40
2022-11-05T06:35:14.392Z,20.60
2022-11-05T06:37:41.250Z,20.05
2022-11-05T06:40:08.968Z,20.70
2022-11-05T06:42:35.968Z,19.38
2022-11-05T06:45:05.460Z,20.45
2022-11-05T06:47:32.182Z,19.50
2022-11-05T06:49:59.125Z,20.38
2022-11-05T06:52:25.917Z,20.37
2022-11-05T06:54:52.835Z,19.98
2022-11-05T06:57:20.694Z,20.20
2022-11-05T06:59:47.537Z,20.45
2022-11-05T07:02:14.429Z,20.30
2022-11-05T07:04:41.571Z,18.77
2022-11-05T07:07:08.371Z,19.42
2022-11-05T07:09:35.320Z,20.90
2022-11-05T07:12:02.153Z,20.20
2022-11-05T07:14:29.003Z,22.05
2022-11-05T07:16:57.603Z,22.17
2022-11-05T07:19:24.490Z,23.70
2022-11-05T07:21:51.351Z,23.80
2022-11-05T07:24:18.312Z,23.02
2022-11-05T07:26:45.189Z,22.17
2022-11-05T07:29:11.957Z,24.80
2022-11-05T07:31:38.744Z,22.23
2022-11-05T07:34:05.652Z,22.20
2022-11-05T07:36:32.500Z,20.55
2022-11-05T07:39:00.685Z,19.65
2022-11-05T07:41:27.705Z,19.57
2022-11-05T07:43:54.700Z,19.13
2022-11-05T07:46:21.548Z,18.50
2022-11-05T07:48:48.522Z,18.13
2022-11-05T07:51:15.277Z,17.77
2022-11-05T07:53:45.270Z,18.07
2022-11-05T07:56:12.931Z,17.25
2022-11-05T07:58:39.808Z,18.85
2022-11-05T08:01:06.826Z,18.38
2022-11-05T08:03:34.471Z,16.90
2022-11-05T08:06:01.534Z,16.10
2022-11-05T08:08:28.356Z,16.40
2022-11-05T08:11:03.326Z,16.38
2022-11-05T08:13:30.146Z,18.05
2022-11-05T08:15:57.596Z,18.17
2022-11-05T08:18:24.922Z,18.20
2022-11-05T08:20:51.700Z,16.98
2022-11-05T08:23:18.524Z,15.82
2022-11-05T08:25:45.361Z,16.60
2022-11-05T08:28:13.504Z,15.40
2022-11-05T08:30:40.966Z,15.80
2022-11-05T08:33:11.792Z,15.95
2022-11-05T08:35:39.990Z,15.70
2022-11-05T08:38:10.003Z,16.27
2022-11-05T08:40:37.747Z,15.50
2022-11-05T08:43:07.477Z,17.40
2022-11-05T08:45:36.501Z,16.65
2022-11-05T08:48:06.629Z,16.23
2022-11-05T08:50:34.584Z,16.50
2022-11-05T08:53:01.518Z,15.68
2022-11-05T08:55:28.675Z,16.80
2022-11-05T08:57:56.947Z,16.75
2022-11-05T09:00:24.294Z,14.90
2022-11-05T09:02:51.447Z,14.57
2022-11-05T09:05:18.641Z,15.63
2022-11-05T09:07:46.018Z,11.57
2022-11-05T09:10:13.678Z,12.88
2022-11-05T09:12:40.728Z,12.20
2022-11-05T09:15:10.870Z,12.40
2022-11-05T09:17:37.848Z,12.48
2022-11-05T09:20:05.704Z,12.43
2022-11-05T09:22:32.778Z,10.15
2022-11-05T09:25:00.097Z,8.80
2022-11-05T09:27:26.996Z,8.48
2022-11-05T09:29:55.219Z,8.68
2022-11-05T09:32:22.065Z,8.30
2022-11-05T09:34:49.388Z,8.45
2022-11-05T09:37:16.748Z,8.73
2022-11-05T09:39:43.648Z,8.43
2022-11-05T09:42:17.560Z,8.30
2022-11-05T09:44:53.016Z,8.67
2022-11-05T09:47:47.014Z,9.05
2022-11-05T09:50:19.135Z,9.43
2022-11-05T09:52:46.060Z,8.82
2022-11-05T09:55:26.646Z,9.38
2022-11-05T09:57:59.534Z,20.23
2022-11-05T10:00:26.566Z,9.90
2022-11-05T10:03:03.429Z,9.85
2022-11-05T10:05:32.804Z,10.52
2022-11-05T10:08:03.463Z,10.85
2022-11-05T10:10:44.776Z,14.73
2022-11-05T10:13:51.828Z,11.45
2022-11-05T10:16:57.984Z,10.10
2022-11-05T10:19:30.922Z,10.23
2022-11-05T10:22:19.228Z,8.93
2022-11-05T10:24:49.309Z,10.60
2022-11-05T10:27:31.276Z,8.50
2022-11-05T10:29:58.205Z,7.40
2022-11-05T10:32:37.896Z,6.95
2022-11-05T10:35:07.684Z,8.90
2022-11-05T10:37:40.665Z,51.20
2022-11-05T10:40:30.546Z,22.88
2022-11-05T10:43:14.930Z,18.45
2022-11-05T10:46:05.859Z,37.25
2022-11-05T10:48:58.938Z,18.17
2022-11-05T10:51:28.714Z,18.97
2022-11-05T10:54:02.286Z,24.10
2022-11-05T10:56:34.982Z,22.35
2022-11-05T10:59:02.277Z,13.95
2022-11-05T11:01:32.452Z,45.17
2022-11-05T11:04:23.241Z,11.23
2022-11-05T11:06:56.079Z,26.55
2022-11-05T11:09:29.311Z,25.20
2022-11-05T11:12:05.255Z,12.20
2022-11-05T11:14:32.621Z,36.05
2022-11-05T11:17:26.254Z,8.10
2022-11-05T11:20:11.886Z,7.43
2022-11-05T11:22:41.751Z,8.40
2022-11-05T11:25:51.088Z,6.90
2022-11-05T11:28:22.511Z,6.95
2022-11-05T11:31:26.619Z,6.40
2022-11-05T11:34:05.145Z,7.47
2022-11-05T11:36:43.690Z,5.72
2022-11-05T11:39:17.630Z,5.78
2022-11-05T11:41:47.261Z,6.75
2022-11-05T11:44:25.425Z,7.00
2022-11-05T11:46:55.667Z,7.28
2022-11-05T11:49:54.551Z,6.13
2022-11-05T11:52:37.520Z,6.43
2022-11-05T11:55:13.532Z,6.20
2022-11-05T11:57:53.448Z,5.13
2022-11-05T12:00:23.844Z,4.95
2022-11-05T12:03:05.625Z,5.50
2022-11-05T12:05:42.666Z,5.40
2022-11-05T12:08:45.239Z,5.28
2022-11-05T12:11:23.790Z,4.70
2022-11-05T12:14:01.784Z,5.47
2022-11-05T12:16:51.523Z,4.65
2022-11-05T12:19:24.452Z,4.90
2022-11-05T12:22:20.651Z,4.47
2022-11-05T12:25:13.008Z,4.13
2022-11-05T12:28:01.096Z,2.90
2022-11-05T12:30:37.009Z,2.50
2022-11-05T12:33:24.034Z,2.25
2022-11-05T12:35:59.734Z,3.22
2022-11-05T12:38:29.581Z,3.67
2022-11-05T12:41:18.013Z,4.03
2022-11-05T12:43:53.233Z,2.42
2022-11-05T12:46:31.977Z,2.90
2022-11-05T12:49:35.761Z,4.15
2022-11-05T12:52:11.382Z,3.00
2022-11-05T12:54:57.633Z,2.65
2022-11-05T12:57:27.660Z,2.40
2022-11-05T13:00:13.155Z,3.75
2022-11-05T13:03:18.364Z,3.90
2022-11-05T13:08:52.609Z,2.35
2022-11-05T13:11:41.852Z,2.30
2022-11-05T13:14:41.176Z,2.40
2022-11-05T13:17:24.805Z,2.78
2022-11-05T13:20:06.976Z,2.50
2022-11-05T13:22:38.487Z,3.83
2022-11-05T13:25:20.354Z,3.50
2022-11-05T13:28:10.153Z,3.03
2022-11-05T13:30:52.767Z,3.13
2022-11-05T13:33:35.706Z,2.40
2022-11-05T13:36:07.539Z,2.03
2022-11-05T13:38:34.812Z,2.58
2022-11-05T13:41:12.721Z,3.08
2022-11-05T13:43:58.887Z,2.63
2022-11-05T13:46:31.988Z,2.70
2022-11-05T13:49:23.491Z,2.70
2022-11-05T13:51:54.250Z,2.58
2022-11-05T13:54:42.390Z,3.17
2022-11-05T13:57:28.642Z,2.85
2022-11-05T14:00:20.237Z,2.20
2022-11-05T14:03:02.080Z,2.28
2022-11-05T14:05:41.549Z,2.33
2022-11-05T14:08:17.618Z,2.50
2022-11-05T14:10:58.591Z,3.25
2022-11-05T14:13:44.708Z,3.03
2022-11-05T14:16:48.668Z,3.08
2022-11-05T14:19:18.677Z,3.03
2022-11-05T14:21:51.074Z,3.00
2022-11-05T14:24:23.834Z,3.13
2022-11-05T14:27:03.097Z,3.00
2022-11-05T14:29:40.482Z,3.50
2022-11-05T14:32:41.625Z,3.67
2022-11-05T14:35:17.704Z,3.58
2022-11-05T14:37:58.998Z,3.53
2022-11-05T14:40:39.661Z,3.77
2022-11-05T14:43:23.494Z,4.13
2022-11-05T14:46:02.216Z,4.30
2022-11-05T14:48:48.903Z,4.35
2022-11-05T14:51:30.953Z,4.30
2022-11-05T14:54:23.565Z,3.60
2022-11-05T14:56:56.398Z,3.63
2022-11-05T14:59:29.652Z,4.03
2022-11-05T15:02:04.661Z,3.70
2022-11-05T15:04:36.445Z,3.92
2022-11-05T15:07:03.299Z,3.43
2022-11-05T15:09:37.099Z,3.38
2022-11-05T15:12:09.748Z,3.70
2022-11-05T15:14:58.433Z,3.80
2022-11-05T15:17:32.550Z,4.07
2022-11-05T15:20:24.098Z,3.47
2022-11-05T15:23:00.409Z,4.20
2022-11-05T15:25:51.975Z,4.93
2022-11-05T15:28:46.131Z,4.95
2022-11-05T15:31:12.975Z,4.65
2022-11-05T15:33:49.457Z,5.27
2022-11-05T15:36:32.346Z,4.68
2022-11-05T15:39:27.927Z,5.40
2022-11-05T15:41:47.934Z,5.30
2022-11-05T15:44:38.022Z,5.50
2022-11-05T15:47:29.273Z,4.80
2022-11-05T15:49:57.957Z,5.00
2022-11-05T15:52:46.529Z,5.90
2022-11-05T15:55:13.386Z,6.40
2022-11-05T15:57:52.608Z,5.43
2022-11-05T16:00:25.878Z,5.97
2022-11-05T16:03:02.908Z,5.55
2022-11-05T16:05:36.339Z,5.50
2022-11-05T16:08:03.695Z,5.32
2022-11-05T16:10:34.515Z,5.13
2022-11-05T16:13:23.704Z,5.60
2022-11-05T16:16:00.842Z,5.38
2022-11-05T16:18:36.023Z,4.57
2022-11-05T16:21:04.710Z,4.43
2022-11-05T16:23:48.379Z,4.82
2022-11-05T16:27:01.135Z,4.60
2022-11-05T16:29:31.471Z,5.03
2022-11-05T16:32:00.309Z,5.18
2022-11-05T16:34:43.315Z,4.60
2022-11-05T16:37:16.095Z,4.70
2022-11-05T16:39:42.972Z,4.10
2022-11-05T16:42:24.877Z,4.30
2022-11-05T16:44:57.619Z,4.05
2022-11-05T16:47:27.349Z,4.30
2022-11-05T16:49:54.242Z,4.10
2022-11-05T16:52:21.716Z,4.13
2022-11-05T16:54:48.660Z,5.00
2022-11-05T16:57:28.404Z,5.68
2022-11-05T16:59:56.368Z,6.60
2022-11-05T17:02:23.368Z,5.80
2022-11-05T17:04:50.386Z,7.17
2022-11-05T17:07:17.240Z,6.65
2022-11-05T17:09:44.075Z,8.25
2022-11-05T17:12:12.338Z,9.18
2022-11-05T17:14:39.511Z,9.77
2022-11-05T17:17:06.558Z,9.47
2022-11-05T17:19:34.103Z,9.05
2022-11-05T17:22:00.839Z,8.43
2022-11-05T17:24:27.701Z,9.98
2022-11-05T17:26:54.664Z,8.85
2022-11-05T17:29:21.384Z,8.60
2022-11-05T17:31:48.328Z,6.95
2022-11-05T17:34:15.182Z,9.00
2022-11-05T17:36:41.895Z,8.23
2022-11-05T17:39:08.857Z,7.47
2022-11-05T17:41:36.286Z,6.50
2022-11-05T17:44:03.173Z,7.18
2022-11-05T17:46:29.956Z,6.10
2022-11-05T17:48:56.953Z,5.85
2022-11-05T17:51:23.671Z,6.28
2022-11-05T17:53:50.955Z,5.80
2022-11-05T17:56:28.793Z,6.75
2022-11-05T17:59:00.620Z,7.20
2022-11-05T18:01:33.927Z,6.38
2022-11-05T18:04:07.233Z,5.57
2022-11-05T18:06:35.964Z,5.40
2022-11-05T18:09:03.301Z,4.47
2022-11-05T18:11:30.170Z,4.65
2022-11-05T18:13:57.033Z,9.18
2022-11-05T18:16:23.844Z,7.78
2022-11-05T18:18:50.709Z,7.67
2022-11-05T18:21:19.018Z,6.97
2022-11-05T18:23:46.002Z,6.45
2022-11-05T18:26:16.725Z,6.53
2022-11-05T18:28:44.662Z,6.05
2022-11-05T18:31:18.445Z,6.50
2022-11-05T18:33:45.552Z,5.25
2022-11-05T18:36:23.975Z,5.10
2022-11-05T18:38:50.945Z,4.50
2022-11-05T18:41:18.911Z,5.07
2022-11-05T18:43:45.860Z,7.63
2022-11-05T18:46:29.211Z,9.10
2022-11-05T18:49:00.586Z,8.77
2022-11-05T18:51:27.841Z,7.90
2022-11-05T18:53:55.419Z,8.18
2022-11-05T18:56:22.558Z,7.57
2022-11-05T18:58:50.576Z,7.68
2022-11-05T19:01:26.511Z,6.95
2022-11-05T19:03:55.882Z,6.82
2022-11-05T19:06:23.398Z,5.68
2022-11-05T19:08:50.267Z,5.97
2022-11-05T19:11:23.902Z,5.55
2022-11-05T19:13:51.456Z,4.97
2022-11-05T19:16:21.376Z,7.88
2022-11-05T19:18:48.966Z,7.50
2022-11-05T19:21:30.112Z,7.17
2022-11-05T19:23:58.694Z,6.50
2022-11-05T19:26:29.769Z,5.97
2022-11-05T19:29:01.371Z,6.03
2022-11-05T19:31:28.647Z,6.40
2022-11-05T19:33:55.902Z,6.73
2022-11-05T19:36:24.107Z,5.90
2022-11-05T19:38:55.908Z,5.85
2022-11-05T19:41:22.664Z,6.70
2022-11-05T19:43:49.789Z,5.40
2022-11-05T19:46:19.417Z,7.60
2022-11-05T19:48:46.348Z,8.95
2022-11-05T19:51:25.273Z,8.32
2022-11-05T19:53:53.321Z,8.80
2022-11-05T19:56:26.946Z,7.68
2022-11-05T19:58:54.629Z,9.20
2022-11-05T20:01:26.864Z,7.97
2022-11-05T20:03:55.732Z,8.43
2022-11-05T20:06:26.531Z,7.90
2022-11-05T20:09:19.870Z,9.15
2022-11-05T20:11:40.732Z,8.50
2022-11-05T20:14:09.417Z,7.30
2022-11-05T20:16:36.658Z,8.13
2022-11-05T20:19:05.632Z,7.72
2022-11-05T20:21:33.064Z,6.90
2022-11-05T20:24:01.342Z,8.03
2022-11-05T20:26:28.556Z,5.55
2022-11-05T20:28:55.746Z,9.00
2022-11-05T20:31:23.104Z,9.35
2022-11-05T20:33:52.835Z,10.60
2022-11-05T20:36:21.908Z,8.83
2022-11-05T20:38:51.171Z,8.73
2022-11-05T20:41:19.200Z,7.35
2022-11-05T20:43:48.266Z,7.43
2022-11-05T20:46:17.168Z,6.60
2022-11-05T20:48:45.098Z,5.63
2022-11-05T20:51:15.171Z,5.80
2022-11-05T20:53:42.954Z,5.93
2022-11-05T20:56:20.531Z,4.82
2022-11-05T20:58:47.358Z,7.45
2022-11-05T21:01:15.388Z,6.93
2022-11-05T21:03:46.988Z,5.43
2022-11-05T21:06:14.363Z,7.00
2022-11-05T21:08:41.512Z,7.60
2022-11-05T21:11:09.069Z,7.45
2022-11-05T21:13:38.928Z,8.13
2022-11-05T21:16:08.223Z,7.00
2022-11-05T21:18:37.112Z,6.03
2022-11-05T21:21:16.538Z,6.13
2022-11-05T21:23:43.819Z,5.50
2022-11-05T21:26:14.415Z,5.30
2022-11-05T21:28:41.756Z,7.53
2022-11-05T21:31:09.624Z,7.75
2022-11-05T21:33:36.683Z,7.82
2022-11-05T21:36:11.390Z,7.57
2022-11-05T21:38:39.355Z,8.73
2022-11-05T21:41:10.043Z,11.70
2022-11-05T21:43:39.432Z,8.93
2022-11-05T21:46:06.876Z,10.43
2022-11-05T21:48:34.516Z,10.88
2022-11-05T21:51:01.686Z,10.87
2022-11-05T21:53:28.709Z,10.35
2022-11-05T21:55:56.947Z,10.40
2022-11-05T21:58:24.032Z,7.32
2022-11-05T22:00:50.867Z,7.90
2022-11-05T22:03:17.986Z,11.00
2022-11-05T22:05:45.399Z,11.70
2022-11-05T22:08:12.413Z,9.25
2022-11-05T22:10:39.260Z,10.40
2022-11-05T22:13:08.322Z,12.27
2022-11-05T22:15:35.104Z,11.93
2022-11-05T22:18:01.921Z,11.75
2022-11-05T22:20:29.239Z,9.52
2022-11-05T22:22:56.032Z,8.70
2022-11-05T22:25:22.810Z,9.80
2022-11-05T22:27:49.631Z,9.13
2022-11-05T22:30:16.934Z,11.68
2022-11-05T22:32:43.708Z,10.77
2022-11-05T22:35:11.059Z,10.13
2022-11-05T22:37:37.831Z,10.02
2022-11-05T22:40:05.157Z,9.10
2022-11-05T22:42:31.988Z,9.18
2022-11-05T22:44:58.769Z,8.93
2022-11-05T22:47:26.692Z,9.13
2022-11-05T22:49:53.694Z,9.68
2022-11-05T22:52:20.491Z,9.73
2022-11-05T22:54:47.218Z,10.68
2022-11-05T22:57:14.289Z,8.00
2022-11-05T22:59:41.259Z,8.07
2022-11-05T23:02:10.043Z,5.45
2022-11-05T23:04:37.968Z,4.00
2022-11-05T23:07:04.802Z,10.48
2022-11-05T23:09:34.411Z,11.93
2022-11-05T23:12:02.607Z,12.52
2022-11-05T23:14:29.655Z,13.07
2022-11-05T23:16:56.699Z,14.30
2022-11-05T23:19:23.897Z,13.35
2022-11-05T23:21:50.625Z,13.10
2022-11-05T23:24:17.481Z,11.90
2022-11-05T23:26:45.304Z,10.80
2022-11-05T23:29:12.038Z,10.43
2022-11-05T23:31:38.851Z,10.68
2022-11-05T23:34:05.866Z,9.13
2022-11-05T23:36:32.574Z,9.85
2022-11-05T23:38:59.395Z,6.97
2022-11-05T23:41:26.270Z,7.70
2022-11-05T23:43:53.019Z,8.23
2022-11-05T23:46:19.777Z,9.35
2022-11-05T23:48:48.283Z,10.73
2022-11-05T23:51:15.000Z,10.07
2022-11-05T23:53:41.904Z,9.80
2022-11-05T23:56:12.282Z,11.25
2022-11-05T23:58:39.949Z,12.07
